Time;durP1;ratioP1;P1;durP2;ratioP2;P2;SDS_P1;SDS_P2;PMS_P1;PMS_P2;Temp;Humidity;BMP_temperature;BMP_pressure;BME280_temperature;BME280_humidity;BME280_pressure;Samples;Min_cycle;Max_cycle;Signal;HPM_P1;HPM_P2
2021/05/15 00:00:14;;;;;;;7.43;4.30;;;;;;;9.28;86.24;98274.38;5133052;27;20138;-93
2021/05/15 00:02:41;;;;;;;7.15;3.78;;;;;;;9.14;85.66;98262.41;5135196;27;20138;-94
2021/05/15 00:05:08;;;;;;;4.70;3.47;;;;;;;9.15;85.61;98280.06;5124739;27;20062;-93
2021/05/15 00:07:35;;;;;;;4.95;2.97;;;;;;;8.99;85.15;98247.81;5121009;28;20047;-94
2021/05/15 00:10:00;;;;;;;5.85;3.00;;;;;;;9.02;85.19;98262.75;5121072;28;20050;-93
2021/05/15 00:12:26;;;;;;;5.43;2.97;;;;;;;9.01;85.01;98269.00;5121084;27;20385;-93
2021/05/15 00:14:53;;;;;;;5.60;2.97;;;;;;;9.08;84.89;98281.16;5120895;28;20044;-95
2021/05/15 00:17:19;;;;;;;5.20;2.83;;;;;;;8.80;84.97;98241.28;5120731;28;20069;-94
2021/05/15 00:19:46;;;;;;;5.45;2.30;;;;;;;8.89;85.46;98269.31;5119691;28;20485;-93
2021/05/15 00:22:11;;;;;;;6.47;2.22;;;;;;;8.87;85.44;98271.16;5119055;28;21158;-92
2021/05/15 00:24:37;;;;;;;3.55;2.10;;;;;;;8.81;85.35;98246.56;5118767;28;20497;-92
2021/05/15 00:27:04;;;;;;;4.80;2.22;;;;;;;8.96;85.00;98263.81;5119081;27;20400;-92
2021/05/15 00:29:30;;;;;;;3.88;2.47;;;;;;;8.79;85.20;98261.63;5119911;28;20109;-93
2021/05/15 00:31:56;;;;;;;4.93;2.22;;;;;;;8.76;85.44;98271.44;5120159;27;20101;-92
2021/05/15 00:34:22;;;;;;;4.47;2.33;;;;;;;8.83;85.54;98283.66;5119671;28;20138;-93
2021/05/15 00:36:49;;;;;;;4.78;2.42;;;;;;;8.69;85.57;98254.00;5120771;27;20039;-92
2021/05/15 00:39:15;;;;;;;4.82;2.50;;;;;;;8.59;85.57;98256.91;5120428;28;20043;-93
2021/05/15 00:41:41;;;;;;;6.43;2.17;;;;;;;8.52;86.22;98251.78;5119707;28;20054;-93
2021/05/15 00:47:11;;;;;;;4.65;2.20;;;;;;;8.64;86.03;98267.38;5136014;27;20356;-93
2021/05/15 00:49:37;;;;;;;5.82;2.28;;;;;;;8.63;85.64;98265.63;5135821;28;20496;-93
2021/05/15 00:52:04;;;;;;;7.18;2.33;;;;;;;8.71;85.62;98274.22;5135809;28;20058;-93
2021/05/15 00:54:30;;;;;;;5.22;2.58;;;;;;;8.64;86.22;98278.84;5135499;28;20039;-94
2021/05/15 00:56:56;;;;;;;4.03;2.10;;;;;;;8.53;86.55;98264.16;5135124;28;20044;-94
2021/05/15 00:59:22;;;;;;;3.72;2.38;;;;;;;8.53;86.35;98275.63;5135611;28;20058;-93
2021/05/15 01:01:48;;;;;;;4.03;2.47;;;;;;;8.58;86.26;98281.66;5134940;27;20035;-93
2021/05/15 01:04:15;;;;;;;3.30;2.17;;;;;;;8.49;85.99;98257.19;5135504;28;20357;-94
2021/05/15 01:06:41;;;;;;;5.88;2.30;;;;;;;8.64;86.34;98284.13;5135554;28;20039;-94
2021/05/15 01:09:07;;;;;;;6.15;2.13;;;;;;;8.43;86.23;98255.56;5135940;28;20106;-93
2021/05/15 01:11:34;;;;;;;2.75;2.10;;;;;;;8.49;86.24;98270.44;5134135;28;20143;-94
2021/05/15 01:14:02;;;;;;;4.45;2.30;;;;;;;8.32;86.34;98245.22;5133487;28;20513;-94
2021/05/15 01:16:28;;;;;;;5.78;2.40;;;;;;;8.34;86.54;98259.28;5133573;28;20392;-92
2021/05/15 01:18:54;;;;;;;4.07;2.40;;;;;;;8.27;86.07;98248.91;5133721;28;20078;-93
2021/05/15 01:21:21;;;;;;;3.30;2.03;;;;;;;8.24;85.94;98257.81;5133547;28;20134;-92
2021/05/15 01:23:47;;;;;;;5.07;2.15;;;;;;;8.30;86.06;98268.22;5133110;28;20373;-93
2021/05/15 01:26:15;;;;;;;6.25;2.25;;;;;;;8.28;86.62;98275.34;5135404;28;20046;-93
2021/05/15 01:28:41;;;;;;;3.13;2.35;;;;;;;8.14;86.58;98257.16;5135188;28;20039;-94
2021/05/15 01:31:07;;;;;;;4.57;2.33;;;;;;;8.15;86.37;98252.72;5134989;28;20092;-93
2021/05/15 01:33:33;;;;;;;7.63;2.20;;;;;;;8.14;85.85;98246.56;5134599;28;20047;-94
2021/05/15 01:35:59;;;;;;;3.50;2.08;;;;;;;8.19;85.68;98254.41;5132860;28;20454;-95
2021/05/15 01:38:27;;;;;;;4.80;2.40;;;;;;;8.08;86.01;98245.84;5133103;28;20035;-95
2021/05/15 01:40:53;;;;;;;4.72;2.10;;;;;;;8.05;86.36;98253.91;5132402;28;20051;-94
2021/05/15 01:43:19;;;;;;;5.65;2.13;;;;;;;7.96;86.57;98261.16;5132534;28;20048;-94
2021/05/15 01:45:45;;;;;;;4.15;2.33;;;;;;;7.90;87.02;98258.66;5132400;28;20101;-93
2021/05/15 01:48:15;;;;;;;4.60;2.28;;;;;;;7.89;86.34;98246.31;5132729;28;20496;-95
2021/05/15 01:50:44;;;;;;;3.75;2.05;;;;;;;8.01;86.24;98266.34;5134831;28;20040;-94
2021/05/15 01:53:10;;;;;;;4.88;2.13;;;;;;;7.85;86.57;98249.06;5134932;28;20114;-93
2021/05/15 01:55:36;;;;;;;3.40;2.00;;;;;;;7.74;86.63;98233.44;5133306;28;20448;-94
2021/05/15 01:58:02;;;;;;;4.03;2.22;;;;;;;7.91;86.94;98270.09;5121486;28;20054;-92
2021/05/15 02:00:29;;;;;;;2.90;2.00;;;;;;;7.80;86.86;98268.56;5118489;28;20048;-93
2021/05/15 02:02:55;;;;;;;5.80;2.30;;;;;;;7.90;86.88;98273.66;5118606;28;20070;-93
2021/05/15 02:05:21;;;;;;;4.72;2.13;;;;;;;7.70;86.50;98245.91;5118541;28;20071;-94
2021/05/15 02:07:47;;;;;;;4.10;2.03;;;;;;;7.85;86.89;98272.88;5118063;28;20100;-95
2021/05/15 02:10:13;;;;;;;4.85;2.17;;;;;;;7.77;86.80;98259.84;5118322;28;20443;-93
2021/05/15 02:12:40;;;;;;;2.25;1.88;;;;;;;7.69;87.50;98240.63;5118348;28;20040;-94
2021/05/15 02:15:07;;;;;;;3.47;2.15;;;;;;;7.70;86.24;98245.00;5118405;28;20393;-93
2021/05/15 02:17:33;;;;;;;3.75;2.08;;;;;;;7.92;85.65;98271.84;5118294;28;20120;-94
2021/05/15 02:20:00;;;;;;;4.88;2.30;;;;;;;7.72;86.05;98259.97;5119711;28;20502;-93
2021/05/15 02:22:26;;;;;;;5.65;2.17;;;;;;;7.64;87.18;98259.28;5118660;28;20040;-95
2021/05/15 02:24:52;;;;;;;3.47;2.40;;;;;;;7.53;87.13;98248.06;5120108;28;20389;-93
2021/05/15 02:27:18;;;;;;;4.32;2.22;;;;;;;7.68;86.90;98278.63;5117957;28;20064;-93
2021/05/15 02:29:45;;;;;;;3.97;2.10;;;;;;;7.65;86.79;98283.97;5118028;28;20051;-93
2021/05/15 02:32:10;;;;;;;3.13;2.05;;;;;;;7.60;86.58;98270.84;5118079;28;20400;-94
2021/05/15 02:34:37;;;;;;;4.80;2.20;;;;;;;7.61;86.98;98276.09;5119880;28;20135;-94
2021/05/15 02:37:03;;;;;;;4.28;2.22;;;;;;;7.73;87.38;98287.31;5119816;28;20043;-93
2021/05/15 02:39:28;;;;;;;2.88;1.90;;;;;;;7.72;87.07;98275.84;5119211;28;20052;-94
2021/05/15 02:41:55;;;;;;;4.25;2.20;;;;;;;7.68;87.04;98266.25;5117165;28;20388;-94
2021/05/15 02:44:21;;;;;;;4.38;2.20;;;;;;;7.78;86.69;98266.88;5117609;28;20047;-94
2021/05/15 02:46:47;;;;;;;3.97;2.35;;;;;;;7.81;86.89;98256.22;5117611;28;20048;-94
2021/05/15 02:49:13;;;;;;;4.03;2.50;;;;;;;7.93;86.96;98263.00;5118470;28;20044;-93
2021/05/15 02:51:39;;;;;;;6.28;2.72;;;;;;;8.01;87.28;98280.44;5118536;28;20054;-95
2021/05/15 02:54:05;;;;;;;3.85;2.40;;;;;;;8.17;87.35;98288.00;5118365;28;20093;-94
2021/05/15 02:56:33;;;;;;;5.13;2.78;;;;;;;8.13;87.37;98271.34;5119434;28;20495;-93
2021/05/15 02:58:59;;;;;;;5.10;2.83;;;;;;;8.40;87.62;98290.06;5119447;28;20050;-95
2021/05/15 03:01:24;;;;;;;4.00;2.42;;;;;;;8.44;86.95;98278.50;5119067;28;20043;-93
2021/05/15 03:03:51;;;;;;;4.97;2.63;;;;;;;8.56;86.33;98293.19;5117236;28;20450;-92
2021/05/15 03:06:17;;;;;;;5.55;2.78;;;;;;;8.70;85.80;98295.50;5116978;28;20040;-92
2021/05/15 03:08:44;;;;;;;4.35;2.80;;;;;;;8.78;86.11;98309.41;5116084;28;20036;-92
2021/05/15 03:11:09;;;;;;;5.03;3.20;;;;;;;8.81;86.69;98307.53;5119139;28;20393;-93
2021/05/15 03:13:35;;;;;;;4.55;2.67;;;;;;;8.75;86.01;98293.59;5119100;28;20040;-92
2021/05/15 03:16:01;;;;;;;4.60;2.45;;;;;;;8.86;85.93;98307.41;5118175;28;20043;-92
2021/05/15 03:18:27;;;;;;;4.10;2.50;;;;;;;8.80;85.82;98295.22;5117249;28;20078;-92
2021/05/15 03:20:55;;;;;;;4.90;2.80;;;;;;;8.83;85.94;98300.41;5118039;28;20035;-93
2021/05/15 03:23:21;;;;;;;4.35;2.72;;;;;;;8.83;85.83;98305.72;5116994;28;20051;-92
2021/05/15 03:25:47;;;;;;;5.35;2.42;;;;;;;8.99;85.57;98337.13;5117885;28;20040;-92
2021/05/15 03:28:13;;;;;;;4.72;2.80;;;;;;;8.92;85.79;98323.16;5117964;28;20051;-92
2021/05/15 03:30:39;;;;;;;4.88;2.72;;;;;;;9.05;85.49;98334.28;5118582;28;20048;-93
2021/05/15 03:33:05;;;;;;;4.03;2.88;;;;;;;8.96;84.45;98313.34;5118519;28;20070;-93
2021/05/15 03:35:31;;;;;;;3.75;2.65;;;;;;;9.03;84.61;98323.72;5116729;28;20042;-93
2021/05/15 03:37:58;;;;;;;5.30;2.90;;;;;;;9.05;84.95;98327.19;5116917;28;20051;-93
2021/05/15 03:40:25;;;;;;;7.43;3.55;;;;;;;8.86;85.02;98302.09;5116505;28;20036;-93
2021/05/15 03:42:54;;;;;;;10.30;3.00;;;;;;;8.84;85.28;98307.44;5116755;28;20079;-92
2021/05/15 03:45:20;;;;;;;4.57;2.90;;;;;;;8.90;85.32;98322.31;5116019;28;20046;-94
2021/05/15 03:47:46;;;;;;;4.93;2.90;;;;;;;8.96;85.30;98329.25;5116440;28;20118;-93
2021/05/15 03:50:13;;;;;;;5.20;3.22;;;;;;;8.88;85.87;98321.50;5116795;28;20061;-93
2021/05/15 03:52:39;;;;;;;9.00;3.50;;;;;;;8.95;86.21;98331.00;5116939;28;20471;-93
2021/05/15 03:55:07;;;;;;;6.75;3.20;;;;;;;8.99;85.96;98337.97;5116887;28;20075;-92
2021/05/15 03:57:33;;;;;;;5.03;2.70;;;;;;;9.05;85.09;98350.22;5118663;28;20576;-94
2021/05/15 03:59:59;;;;;;;4.32;2.90;;;;;;;8.95;85.33;98343.41;5118093;28;20075;-93
2021/05/15 04:02:26;;;;;;;7.10;3.97;;;;;;;8.91;85.83;98339.09;5116502;28;20043;-94
2021/05/15 04:04:53;;;;;;;5.30;3.33;;;;;;;8.89;85.68;98343.56;5118536;28;20074;-93
2021/05/15 04:07:19;;;;;;;5.60;3.20;;;;;;;8.97;85.47;98344.25;5118548;28;20050;-93
2021/05/15 04:09:45;;;;;;;5.55;3.15;;;;;;;9.14;85.06;98359.69;5118615;28;20055;-93
2021/05/15 04:12:14;;;;;;;4.43;2.70;;;;;;;9.09;84.82;98349.22;5118659;28;20393;-93
2021/05/15 04:17:39;;;;;;;6.53;3.63;;;;;;;9.23;84.51;98372.69;5190762;27;20344;-93
2021/05/15 04:20:06;;;;;;;4.53;3.15;;;;;;;9.19;84.56;98361.28;5156449;27;20046;-94
2021/05/15 04:22:37;;;;;;;4.40;3.10;;;;;;;9.21;84.97;98361.25;5163750;27;20130;-92
2021/05/15 04:25:07;;;;;;;4.82;3.13;;;;;;;9.38;84.77;98358.13;5171101;27;20039;-94
2021/05/15 04:27:33;;;;;;;5.57;3.50;;;;;;;9.46;84.06;98364.09;5165380;27;20072;-92
2021/05/15 04:29:59;;;;;;;7.70;3.38;;;;;;;9.69;83.58;98389.06;5139205;27;20035;-93
2021/05/15 04:32:25;;;;;;;6.45;3.17;;;;;;;9.67;83.46;98367.88;5151710;27;20424;-93
2021/05/15 04:34:52;;;;;;;5.10;3.88;;;;;;;9.77;83.32;98376.44;5147099;27;20491;-92
2021/05/15 04:37:18;;;;;;;5.68;3.20;;;;;;;9.98;82.47;98398.84;5155648;27;20039;-93
2021/05/15 04:39:44;;;;;;;5.97;3.05;;;;;;;10.04;81.63;98395.97;5154327;27;20038;-92
2021/05/15 04:42:10;;;;;;;4.88;3.00;;;;;;;10.04;80.78;98385.34;5156034;27;20047;-92
2021/05/15 04:44:35;;;;;;;6.05;2.97;;;;;;;10.12;81.29;98393.09;5142560;27;20059;-92
2021/05/15 04:47:01;;;;;;;7.45;2.75;;;;;;;10.11;81.85;98397.53;5148075;27;20043;-93
2021/05/15 04:49:27;;;;;;;4.45;2.85;;;;;;;10.04;81.38;98395.97;5143905;27;20047;-93
2021/05/15 04:51:54;;;;;;;5.95;2.80;;;;;;;9.93;81.73;98391.00;5149541;27;20104;-92
2021/05/15 04:54:20;;;;;;;5.57;3.50;;;;;;;9.85;82.86;98399.19;5136831;27;20528;-93
2021/05/15 04:56:46;;;;;;;5.85;3.15;;;;;;;9.82;82.84;98394.00;5145099;27;20063;-93
2021/05/15 04:59:12;;;;;;;6.70;3.63;;;;;;;9.91;82.86;98406.13;5133524;28;20039;-92
2021/05/15 05:01:38;;;;;;;6.18;4.10;;;;;;;9.97;82.56;98400.59;5143837;27;20572;-91
2021/05/15 05:04:07;;;;;;;6.32;3.55;;;;;;;9.93;82.23;98393.66;5149425;27;20059;-92
2021/05/15 05:06:34;;;;;;;7.57;3.70;;;;;;;10.00;81.77;98397.88;5143408;27;20035;-93
2021/05/15 05:09:00;;;;;;;5.53;3.20;;;;;;;10.05;81.99;98397.72;5151345;27;20098;-93
2021/05/15 05:11:26;;;;;;;5.65;2.75;;;;;;;10.31;81.09;98412.03;5145615;27;20526;-91
2021/05/15 05:13:52;;;;;;;4.30;2.83;;;;;;;10.27;80.47;98385.50;5150023;27;20035;-93
2021/05/15 05:16:18;;;;;;;5.53;3.40;;;;;;;10.27;81.71;98408.53;5153491;27;20563;-93
2021/05/15 05:18:44;;;;;;;4.55;3.15;;;;;;;10.25;81.96;98408.59;5146241;27;20043;-93
2021/05/15 05:21:10;;;;;;;4.15;2.90;;;;;;;10.32;82.27;98401.31;5150659;27;20097;-92
2021/05/15 05:23:36;;;;;;;4.45;2.75;;;;;;;10.50;80.97;98422.94;5149088;27;20038;-92
2021/05/15 05:26:03;;;;;;;5.97;3.10;;;;;;;10.34;80.23;98391.50;5142822;27;20088;-94
2021/05/15 05:31:28;;;;;;;5.70;3.25;;;;;;;10.66;80.20;98426.81;5112763;27;20342;-92
2021/05/15 05:33:54;;;;;;;4.38;2.88;;;;;;;10.77;79.34;98419.34;5111283;28;20059;-93
2021/05/15 05:36:20;;;;;;;6.07;2.80;;;;;;;10.88;79.45;98419.84;5113776;28;20129;-92
2021/05/15 05:38:46;;;;;;;4.80;3.03;;;;;;;10.95;78.81;98414.31;5113174;28;20048;-92
2021/05/15 05:41:12;;;;;;;5.05;3.10;;;;;;;11.10;77.87;98421.78;5114720;28;20044;-92
2021/05/15 05:43:37;;;;;;;5.43;2.78;;;;;;;11.10;78.13;98408.47;5112782;28;20126;-93
2021/05/15 05:46:03;;;;;;;6.28;3.10;;;;;;;11.15;78.00;98421.66;5111895;28;20043;-92
2021/05/15 05:48:31;;;;;;;5.13;3.20;;;;;;;11.12;77.69;98421.72;5112648;28;20040;-91
2021/05/15 05:50:57;;;;;;;4.50;2.78;;;;;;;11.34;78.47;98440.47;5114032;28;20040;-92
2021/05/15 05:53:23;;;;;;;4.85;3.28;;;;;;;11.36;77.49;98447.47;5113110;28;20119;-93
2021/05/15 05:55:49;;;;;;;6.25;3.60;;;;;;;11.22;78.33;98432.00;5113978;28;20031;-92
2021/05/15 05:58:15;;;;;;;7.05;4.20;;;;;;;11.28;78.52;98447.75;5112195;28;20058;-93
2021/05/15 06:00:41;;;;;;;4.63;3.50;;;;;;;11.25;78.55;98439.00;5111523;28;20474;-92
2021/05/15 06:03:06;;;;;;;6.80;3.20;;;;;;;11.39;77.68;98441.19;5112075;28;20066;-92
2021/05/15 06:05:33;;;;;;;5.72;3.13;;;;;;;11.48;77.40;98436.41;5111908;28;20044;-92
2021/05/15 06:08:06;;;;;;;4.20;2.95;;;;;;;11.67;77.12;98441.94;5112826;28;20051;-92
2021/05/15 06:10:32;;;;;;;4.30;2.90;;;;;;;11.67;76.36;98433.94;5111831;28;21059;-92
2021/05/15 06:12:58;;;;;;;5.43;3.08;;;;;;;11.74;75.75;98444.38;5112928;28;20044;-91
2021/05/15 06:15:24;;;;;;;4.32;2.83;;;;;;;11.81;75.70;98440.56;5110118;28;20139;-92
2021/05/15 06:17:50;;;;;;;5.65;3.53;;;;;;;11.96;75.10;98448.00;5110894;28;20051;-93
2021/05/15 06:20:16;;;;;;;5.60;3.72;;;;;;;12.12;74.73;98443.84;5113002;28;20039;-93
2021/05/15 06:22:43;;;;;;;4.90;3.95;;;;;;;12.24;74.35;98423.81;5111823;28;20052;-92
2021/05/15 06:25:11;;;;;;;4.93;3.45;;;;;;;12.44;74.05;98428.34;5110459;28;20124;-93
2021/05/15 06:27:37;;;;;;;6.05;3.40;;;;;;;12.49;73.71;98437.06;5111197;28;20419;-93
2021/05/15 06:30:03;;;;;;;5.85;3.15;;;;;;;12.66;71.76;98441.69;5111489;28;20109;-93
2021/05/15 06:32:29;;;;;;;6.63;3.30;;;;;;;12.78;72.44;98448.31;5112012;28;20047;-94
2021/05/15 06:34:55;;;;;;;4.35;3.13;;;;;;;13.37;70.30;98435.22;5112936;28;20066;-94
2021/05/15 06:37:21;;;;;;;5.15;2.85;;;;;;;13.84;68.65;98437.56;5112655;28;20497;-92
2021/05/15 06:39:50;;;;;;;6.30;3.65;;;;;;;14.30;66.90;98416.69;5110623;28;20059;-95
2021/05/15 06:42:16;;;;;;;6.22;3.55;;;;;;;14.86;65.56;98431.81;5101122;28;20040;-94
2021/05/15 06:44:42;;;;;;;5.80;2.83;;;;;;;14.73;64.55;98414.66;5098690;28;20048;-94
2021/05/15 06:47:08;;;;;;;4.55;3.10;;;;;;;14.75;63.73;98412.75;5097801;28;20040;-94
2021/05/15 06:49:34;;;;;;;4.63;2.50;;;;;;;15.09;62.91;98432.47;5098750;28;20406;-95
2021/05/15 06:52:00;;;;;;;4.20;2.67;;;;;;;14.40;64.23;98412.66;5100363;28;20056;-94
2021/05/15 06:54:29;;;;;;;4.85;3.20;;;;;;;14.39;65.23;98414.44;5100819;28;20164;-95
2021/05/15 06:56:59;;;;;;;5.40;3.22;;;;;;;14.42;66.78;98405.41;5100894;28;20037;-96
2021/05/15 06:59:28;;;;;;;5.30;2.78;;;;;;;14.94;64.39;98405.53;5100525;28;20028;-94
2021/05/15 07:01:57;;;;;;;7.57;2.90;;;;;;;15.33;63.40;98401.75;5101627;28;20097;-95
2021/05/15 07:04:27;;;;;;;3.78;2.70;;;;;;;15.89;61.90;98413.09;5104811;28;20044;-95
2021/05/15 07:06:59;;;;;;;3.38;2.47;;;;;;;16.08;59.18;98423.69;5105809;28;20044;-93
2021/05/15 07:09:28;;;;;;;4.78;2.80;;;;;;;15.68;60.34;98416.88;5105836;28;20039;-93
2021/05/15 07:11:57;;;;;;;4.50;2.80;;;;;;;15.48;62.09;98413.44;5108698;28;20119;-95
2021/05/15 07:14:28;;;;;;;6.78;2.97;;;;;;;15.44;62.44;98417.28;5101127;28;20493;-95
2021/05/15 07:16:57;;;;;;;5.75;2.83;;;;;;;15.00;62.77;98413.22;5107974;28;20040;-95
2021/05/15 07:19:23;;;;;;;4.95;2.38;;;;;;;15.81;61.02;98426.94;5103658;28;20036;-92
2021/05/15 07:21:49;;;;;;;4.25;2.60;;;;;;;16.52;60.52;98419.47;5104241;28;20047;-95
2021/05/15 07:24:15;;;;;;;4.43;2.53;;;;;;;16.72;58.53;98408.47;5099913;28;20100;-94
2021/05/15 07:26:51;;;;;;;4.60;2.80;;;;;;;16.69;56.70;98399.72;5105052;28;20036;-95
2021/05/15 07:29:17;;;;;;;3.88;2.42;;;;;;;16.88;56.26;98404.91;5100096;28;20066;-96
2021/05/15 07:31:47;;;;;;;4.15;2.25;;;;;;;17.20;56.06;98403.00;5101992;28;20093;-94
2021/05/15 07:34:28;;;;;;;3.33;2.22;;;;;;;17.39;55.42;98398.25;5101355;28;20517;-96
2021/05/15 07:36:57;;;;;;;2.83;2.10;;;;;;;17.30;55.55;98409.53;5100513;28;20062;-94
2021/05/15 07:39:35;;;;;;;2.97;1.83;;;;;;;17.06;54.65;98394.91;5101677;28;20489;-95
2021/05/15 07:42:02;;;;;;;3.05;1.83;;;;;;;17.03;56.00;98396.81;5106171;28;20040;-95
2021/05/15 07:44:28;;;;;;;2.72;1.83;;;;;;;17.16;55.83;98406.84;5102527;28;20044;-95
2021/05/15 07:46:57;;;;;;;2.97;1.75;;;;;;;17.11;55.91;98398.16;5101242;28;20051;-95
2021/05/15 07:49:23;;;;;;;2.80;1.70;;;;;;;17.20;55.88;98403.00;5097101;28;20036;-94
2021/05/15 07:54:52;;;;;;;2.70;1.50;;;;;;;17.58;54.34;98432.06;5135339;27;20351;-95
2021/05/15 07:57:18;;;;;;;3.60;1.80;;;;;;;17.65;53.24;98423.53;5136743;27;20039;-94
2021/05/15 07:59:44;;;;;;;4.93;1.75;;;;;;;17.96;51.16;98428.88;5134971;27;20054;-92
2021/05/15 08:02:10;;;;;;;1.60;1.42;;;;;;;17.06;53.79;98425.31;5129510;28;20110;-93
2021/05/15 08:04:36;;;;;;;1.83;1.40;;;;;;;16.04;57.28;98418.56;5136657;27;20081;-93
2021/05/15 08:07:03;;;;;;;3.22;2.00;;;;;;;15.71;56.87;98427.47;5135325;27;20047;-93
2021/05/15 08:09:29;;;;;;;3.30;1.40;;;;;;;16.36;55.68;98428.38;5136317;27;20044;-93
2021/05/15 08:11:55;;;;;;;1.83;1.27;;;;;;;16.82;52.83;98424.91;5134949;27;20449;-93
2021/05/15 08:14:22;;;;;;;1.65;1.50;;;;;;;16.84;52.51;98414.97;5133010;27;20040;-93
2021/05/15 08:16:48;;;;;;;3.00;1.80;;;;;;;17.04;54.67;98413.78;5133266;27;20039;-93
2021/05/15 08:19:14;;;;;;;3.05;1.90;;;;;;;17.26;53.77;98429.47;5133863;27;20043;-94
2021/05/15 08:21:40;;;;;;;3.20;1.70;;;;;;;17.52;52.51;98433.31;5132949;27;20052;-92
2021/05/15 08:24:07;;;;;;;2.78;1.80;;;;;;;17.69;53.30;98445.72;5132459;27;20051;-93
2021/05/15 08:26:34;;;;;;;4.63;2.47;;;;;;;17.91;54.55;98430.97;5133962;27;20390;-95
2021/05/15 08:29:06;;;;;;;2.58;1.70;;;;;;;17.44;53.10;98412.25;5136780;27;20065;-95
2021/05/15 08:31:35;;;;;;;3.25;2.10;;;;;;;17.73;52.92;98416.81;5133472;27;20110;-93
2021/05/15 08:34:05;;;;;;;4.88;2.10;;;;;;;17.65;52.97;98407.41;5134990;27;20046;-94
2021/05/15 08:36:33;;;;;;;2.70;1.80;;;;;;;18.03;52.75;98424.81;5133780;27;20091;-95
2021/05/15 08:39:05;;;;;;;2.85;1.77;;;;;;;18.09;51.97;98413.69;5135424;27;20055;-94
2021/05/15 08:41:43;;;;;;;2.50;1.77;;;;;;;18.38;50.93;98397.47;5129732;28;20039;-93
2021/05/15 08:44:21;;;;;;;1.90;1.40;;;;;;;18.43;50.26;98396.22;5134658;27;20062;-94
2021/05/15 08:46:50;;;;;;;4.55;1.58;;;;;;;18.64;49.60;98423.56;5131885;27;20043;-92
2021/05/15 08:49:21;;;;;;;2.22;1.40;;;;;;;18.74;48.45;98404.13;5132015;27;20077;-93
2021/05/15 08:51:49;;;;;;;1.60;1.40;;;;;;;19.13;47.75;98435.66;5132561;27;20508;-93
2021/05/15 08:54:16;;;;;;;3.78;1.60;;;;;;;19.46;45.84;98424.38;5134652;28;20054;-94
2021/05/15 08:56:42;;;;;;;2.05;1.35;;;;;;;19.55;46.83;98414.78;5133536;27;20418;-93
2021/05/15 08:59:09;;;;;;;2.80;1.45;;;;;;;19.22;46.17;98423.38;5134286;27;20404;-93
2021/05/15 09:01:42;;;;;;;2.47;1.50;;;;;;;19.29;47.27;98425.53;5138286;27;20074;-96
2021/05/15 09:04:09;;;;;;;3.20;1.70;;;;;;;19.38;49.07;98459.09;5133902;27;20123;-94
2021/05/15 09:06:38;;;;;;;3.17;1.63;;;;;;;18.74;50.02;98447.22;5123376;28;20067;-94
2021/05/15 09:09:05;;;;;;;4.20;1.60;;;;;;;18.91;49.24;98438.94;5121836;28;20071;-94
2021/05/15 09:11:35;;;;;;;2.38;1.70;;;;;;;19.30;45.85;98429.13;5119081;28;20036;-96
2021/05/15 09:14:01;;;;;;;3.55;1.90;;;;;;;19.82;46.73;98436.31;5121993;28;20039;-93
2021/05/15 09:16:27;;;;;;;2.97;2.35;;;;;;;19.88;44.15;98427.78;5118701;28;20078;-94
2021/05/15 09:19:03;;;;;;;2.83;1.83;;;;;;;20.55;43.93;98431.16;5118902;28;20043;-93
2021/05/15 09:21:32;;;;;;;3.33;2.20;;;;;;;20.82;42.87;98428.25;5121602;28;20054;-95
2021/05/15 09:24:04;;;;;;;3.50;1.75;;;;;;;20.85;46.12;98455.06;5121846;28;20369;-94
2021/05/15 09:26:30;;;;;;;5.18;1.92;;;;;;;20.82;44.60;98441.75;5122708;28;20044;-94
2021/05/15 09:28:58;;;;;;;2.65;1.70;;;;;;;20.63;44.49;98429.63;5120740;28;20053;-93
2021/05/15 09:31:30;;;;;;;2.80;1.90;;;;;;;20.08;45.34;98423.69;5120983;28;20382;-94
2021/05/15 09:34:01;;;;;;;4.57;1.90;;;;;;;19.84;45.99;98433.50;5116317;28;20096;-94
2021/05/15 09:36:29;;;;;;;2.28;1.80;;;;;;;19.53;46.96;98446.41;5103459;28;20134;-94
2021/05/15 09:39:04;;;;;;;2.80;1.80;;;;;;;19.95;44.91;98433.63;5112364;28;20435;-93
2021/05/15 09:41:52;;;;;;;2.88;1.90;;;;;;;18.76;48.05;98431.78;5118208;28;20043;-94
2021/05/15 09:44:20;;;;;;;2.35;1.70;;;;;;;18.86;49.68;98424.88;5121451;28;20043;-94
2021/05/15 09:46:49;;;;;;;2.88;2.20;;;;;;;19.12;47.05;98423.13;5121008;28;20040;-95
2021/05/15 09:49:17;;;;;;;2.65;1.77;;;;;;;18.95;48.50;98426.09;5125022;28;20055;-93
2021/05/15 09:51:50;;;;;;;4.40;2.10;;;;;;;18.90;48.72;98434.47;5123302;28;20051;-94
2021/05/15 09:54:18;;;;;;;2.50;1.77;;;;;;;18.30;47.74;98442.88;5124242;28;20086;-93
2021/05/15 09:56:56;;;;;;;2.47;1.90;;;;;;;17.33;48.96;98436.25;5122264;28;20044;-94
2021/05/15 09:59:34;;;;;;;3.72;1.80;;;;;;;17.92;50.71;98451.53;5123792;28;20039;-94
2021/05/15 10:02:03;;;;;;;3.40;1.92;;;;;;;18.68;47.45;98430.47;5118901;28;20047;-93
2021/05/15 10:04:30;;;;;;;;;;;;;;;19.15;47.29;98457.97;5120032;28;20523;-94
2021/05/15 10:07:00;;;;;;;1.95;1.60;;;;;;;18.40;45.58;98441.31;5119606;28;19924;-94
2021/05/15 10:09:31;;;;;;;1.60;1.50;;;;;;;18.48;47.07;98452.47;5120383;28;20048;-94
2021/05/15 10:12:02;;;;;;;1.75;1.45;;;;;;;19.21;43.78;98435.13;5119251;28;20040;-93
2021/05/15 10:14:31;;;;;;;1.70;1.58;;;;;;;19.79;43.56;98425.72;5120837;27;20032;-95
2021/05/15 10:17:02;;;;;;;2.72;1.65;;;;;;;20.03;43.74;98430.38;5118183;28;20043;-93
2021/05/15 10:19:28;;;;;;;2.05;1.30;;;;;;;20.45;42.70;98420.13;5120372;28;20103;-94
2021/05/15 10:22:10;;;;;;;2.17;1.30;;;;;;;20.62;42.16;98419.78;5118798;28;20054;-94
2021/05/15 10:24:37;;;;;;;2.00;1.30;;;;;;;20.85;40.43;98425.34;5120372;28;20036;-94
2021/05/15 10:27:12;;;;;;;2.88;1.20;;;;;;;21.27;40.47;98420.34;5120264;27;20500;-93
2021/05/15 10:29:43;;;;;;;1.98;1.20;;;;;;;21.31;38.49;98406.47;5120774;28;20063;-93
2021/05/15 10:32:21;;;;;;;1.67;1.10;;;;;;;20.85;40.08;98446.97;5119542;28;20035;-94
2021/05/15 10:34:59;;;;;;;3.58;1.40;;;;;;;19.64;41.24;98416.84;5120260;28;20130;-94
2021/05/15 10:37:31;;;;;;;1.65;1.27;;;;;;;19.27;42.93;98435.56;5120894;28;20044;-95
2021/05/15 10:40:14;;;;;;;0.95;0.95;;;;;;;18.64;44.79;98411.94;5121917;28;20048;-95
2021/05/15 10:42:59;;;;;;;1.45;1.20;;;;;;;18.67;43.43;98417.09;5123974;28;20073;-94
2021/05/15 10:45:35;;;;;;;2.85;1.20;;;;;;;18.82;45.33;98401.78;5120581;28;20065;-95
2021/05/15 10:48:22;;;;;;;2.10;1.00;;;;;;;19.79;42.85;98409.53;5120577;28;20048;-95
2021/05/15 10:50:53;;;;;;;1.40;1.10;;;;;;;19.63;41.53;98416.97;5122013;28;20043;-94
2021/05/15 10:53:24;;;;;;;1.33;1.23;;;;;;;18.99;40.54;98390.75;5119621;28;20051;-95
2021/05/15 10:56:04;;;;;;;1.05;1.05;;;;;;;19.54;41.79;98425.69;5121440;28;20065;-93
2021/05/15 10:58:50;;;;;;;1.45;1.10;;;;;;;20.17;42.00;98395.16;5118127;28;20046;-95
2021/05/15 11:01:18;;;;;;;1.40;1.00;;;;;;;20.40;40.18;98388.06;5119177;28;20054;-94
2021/05/15 11:03:45;;;;;;;1.37;1.20;;;;;;;21.09;37.85;98404.56;5118226;28;20092;-92
2021/05/15 11:06:17;;;;;;;2.08;1.20;;;;;;;21.05;37.88;98411.19;5119122;28;20070;-95
2021/05/15 11:08:56;;;;;;;1.05;0.90;;;;;;;19.95;37.87;98398.53;5119351;28;20062;-95
2021/05/15 11:11:34;;;;;;;1.60;1.10;;;;;;;19.10;40.20;98379.25;5119381;28;20036;-94
2021/05/15 11:14:00;;;;;;;1.17;1.10;;;;;;;19.04;42.74;98391.31;5122598;28;20079;-95
2021/05/15 11:16:31;;;;;;;2.22;1.30;;;;;;;18.60;43.40;98395.09;5119647;28;20446;-94
2021/05/15 11:19:06;;;;;;;2.63;1.40;;;;;;;18.58;43.08;98401.56;5120688;28;20114;-94
2021/05/15 11:21:37;;;;;;;1.50;1.40;;;;;;;18.42;46.22;98405.25;5119301;28;20455;-94
2021/05/15 11:24:09;;;;;;;2.70;1.38;;;;;;;19.13;45.09;98397.03;5121237;28;20043;-94
2021/05/15 11:26:46;;;;;;;3.58;1.60;;;;;;;18.73;42.76;98392.47;5119164;28;20042;-95
2021/05/15 11:29:12;;;;;;;2.33;1.50;;;;;;;18.62;43.75;98390.47;5109539;28;20134;-92
2021/05/15 11:31:39;;;;;;;2.30;1.40;;;;;;;18.61;43.77;98399.53;5119135;28;20523;-92
2021/05/15 11:34:17;;;;;;;2.67;1.40;;;;;;;19.13;44.19;98378.16;5120178;28;20043;-93
2021/05/15 11:36:43;;;;;;;;;;;;;;;19.50;43.01;98407.03;5121051;28;20050;-93
2021/05/15 11:39:11;;;;;;;1.92;1.40;;;;;;;19.26;43.01;98390.72;5122683;27;19915;-94
2021/05/15 11:41:38;;;;;;;1.60;1.15;;;;;;;19.06;43.83;98369.63;5119982;28;20040;-93
2021/05/15 11:44:05;;;;;;;2.00;1.60;;;;;;;19.05;43.03;98373.31;5117713;28;20064;-94
2021/05/15 11:46:31;;;;;;;1.42;1.27;;;;;;;19.70;41.67;98402.09;5118561;28;20047;-94
2021/05/15 11:48:57;;;;;;;1.33;1.20;;;;;;;19.83;42.32;98392.16;5117930;28;20093;-94
2021/05/15 11:51:26;;;;;;;;;;;;;;;19.94;41.61;98404.03;5118971;28;20047;-93